Time;durP1;ratioP1;P1;durP2;ratioP2;P2;SDS_P1;SDS_P2;PMS_P1;PMS_P2;Temp;Humidity;BMP_temperature;BMP_pressure;BME280_temperature;BME280_humidity;BME280_pressure;Samples;Min_cycle;Max_cycle;Signal;HPM_P1;HPM_P2
2022/07/13 00:01:52;;;;;;;5.15;2.50;;;;;;;13.75;74.14;99309.06;4135835;28;20046;-71
2022/07/13 00:03:52;;;;;;;5.07;2.50;;;;;;;13.71;73.51;99312.94;4137545;28;20133;-71
2022/07/13 00:05:52;;;;;;;3.78;2.00;;;;;;;13.64;74.94;99308.09;4137294;28;20367;-72
2022/07/13 00:07:53;;;;;;;2.53;2.10;;;;;;;13.59;74.66;99311.22;4137812;28;20042;-72
2022/07/13 00:09:53;;;;;;;2.55;2.00;;;;;;;13.55;76.23;99310.38;4136741;28;20046;-72
2022/07/13 00:11:53;;;;;;;2.83;2.03;;;;;;;13.56;76.70;99313.94;4137713;28;20528;-71
2022/07/13 00:13:54;;;;;;;3.08;2.38;;;;;;;13.59;75.67;99305.66;4137705;28;20800;-71
2022/07/13 00:15:55;;;;;;;4.13;2.10;;;;;;;13.63;76.28;99308.47;4136128;28;20649;-71
2022/07/13 00:17:55;;;;;;;3.05;1.98;;;;;;;13.64;76.48;99304.53;4136821;28;20132;-72
2022/07/13 00:19:55;;;;;;;2.38;1.73;;;;;;;13.70;76.66;99303.00;4136227;28;20057;-71
2022/07/13 00:21:56;;;;;;;4.85;2.05;;;;;;;13.71;77.38;99307.41;4135212;28;20151;-71
2022/07/13 00:23:56;;;;;;;3.30;2.30;;;;;;;13.74;77.30;99306.66;4137662;28;20065;-71
2022/07/13 00:25:56;;;;;;;3.00;2.20;;;;;;;13.78;76.91;99304.69;4136802;28;20081;-71
2022/07/13 00:27:57;;;;;;;4.80;2.42;;;;;;;13.85;76.88;99307.56;4135915;28;20524;-71
2022/07/13 00:29:57;;;;;;;4.15;2.50;;;;;;;13.95;75.60;99297.75;4137504;28;20054;-72
2022/07/13 00:31:58;;;;;;;3.08;2.20;;;;;;;14.03;74.42;99288.28;4136173;28;20127;-72
2022/07/13 00:33:58;;;;;;;4.10;2.28;;;;;;;14.08;74.83;99284.38;4137563;28;20042;-71
2022/07/13 00:35:59;;;;;;;3.03;2.45;;;;;;;14.15;74.40;99288.03;4134050;28;20046;-71
2022/07/13 00:38:00;;;;;;;2.65;2.13;;;;;;;14.24;74.40;99288.50;4136474;28;20108;-71
2022/07/13 00:40:00;;;;;;;3.83;2.55;;;;;;;14.28;73.84;99288.53;4135874;28;20130;-71
2022/07/13 00:42:00;;;;;;;4.65;2.67;;;;;;;14.35;73.36;99283.03;4135763;28;20038;-71
2022/07/13 00:44:10;;;;;;;6.13;2.78;;;;;;;14.40;72.85;99287.44;4137293;28;20077;-72
2022/07/13 00:46:11;;;;;;;5.63;2.75;;;;;;;14.47;72.52;99281.97;4136729;28;20048;-72
2022/07/13 00:48:11;;;;;;;5.10;2.42;;;;;;;14.50;72.18;99273.66;4137309;28;20030;-71
2022/07/13 00:50:11;;;;;;;10.43;2.80;;;;;;;14.53;71.75;99275.66;4136265;28;20121;-71
2022/07/13 00:52:12;;;;;;;6.70;2.42;;;;;;;14.60;71.84;99261.81;4135047;28;20018;-71
2022/07/13 00:54:13;;;;;;;2.75;2.35;;;;;;;14.67;71.38;99257.47;4136887;28;20075;-71
2022/07/13 00:56:13;;;;;;;4.10;2.47;;;;;;;14.71;70.80;99245.16;4136815;28;20289;-71
2022/07/13 00:58:14;;;;;;;5.03;2.30;;;;;;;14.80;70.20;99255.97;4136121;28;20451;-71
2022/07/13 01:00:15;;;;;;;13.85;2.47;;;;;;;14.82;70.93;99256.41;4133195;28;20313;-71
2022/07/13 01:02:15;;;;;;;8.57;2.58;;;;;;;14.85;70.48;99261.19;4136119;28;20044;-71
2022/07/13 01:04:15;;;;;;;4.82;2.42;;;;;;;14.89;70.29;99253.63;4135489;28;20033;-71
2022/07/13 01:06:17;;;;;;;10.15;2.38;;;;;;;14.90;70.68;99255.25;4135154;28;20037;-71
2022/07/13 01:08:19;;;;;;;6.80;2.40;;;;;;;14.89;71.08;99245.28;4136156;28;20033;-71
2022/07/13 01:10:19;;;;;;;5.97;3.00;;;;;;;14.90;71.21;99246.91;4136809;28;20309;-71
2022/07/13 01:12:20;;;;;;;5.55;2.40;;;;;;;14.95;71.88;99243.72;4135104;28;20489;-71
2022/07/13 01:14:21;;;;;;;3.97;2.40;;;;;;;14.97;71.68;99249.72;4135326;28;20714;-71
2022/07/13 01:16:22;;;;;;;4.97;2.30;;;;;;;14.93;73.02;99248.91;4135240;28;20046;-72
2022/07/13 01:18:23;;;;;;;3.45;2.42;;;;;;;14.80;74.07;99247.59;4135082;28;20137;-71
2022/07/13 01:20:25;;;;;;;3.13;2.30;;;;;;;14.72;72.72;99245.97;4135713;28;20202;-71
2022/07/13 01:22:29;;;;;;;2.85;2.00;;;;;;;14.63;73.46;99251.88;4134727;28;20128;-71
2022/07/13 01:24:30;;;;;;;5.35;2.65;;;;;;;14.58;73.26;99253.03;4136788;28;20625;-71
2022/07/13 01:26:31;;;;;;;5.03;2.47;;;;;;;14.48;74.99;99252.94;4136074;28;20399;-72
2022/07/13 01:28:31;;;;;;;4.72;2.20;;;;;;;14.50;73.82;99259.75;4134402;28;20400;-72
2022/07/13 01:30:32;;;;;;;7.00;2.53;;;;;;;14.45;75.13;99256.47;4136197;28;20053;-72
2022/07/13 01:33:01;;;;;;;3.80;2.47;;;;;;;14.37;76.29;99249.25;4134218;28;20308;-71
2022/07/13 01:35:02;;;;;;;4.03;2.65;;;;;;;14.30;75.25;99252.75;4124891;28;20041;-71
2022/07/13 01:37:03;;;;;;;2.88;2.40;;;;;;;14.33;74.17;99250.03;4137093;28;20050;-71
2022/07/13 01:39:04;;;;;;;3.33;2.30;;;;;;;14.36;75.05;99242.09;4135863;28;20074;-71
2022/07/13 01:41:05;;;;;;;3.90;2.35;;;;;;;14.36;75.25;99240.09;4134663;28;20060;-71
2022/07/13 01:43:05;;;;;;;3.58;2.65;;;;;;;14.42;73.91;99238.56;4135777;28;20550;-71
2022/07/13 01:45:07;;;;;;;5.13;2.63;;;;;;;14.52;74.00;99239.84;4134462;28;20073;-71
2022/07/13 01:47:08;;;;;;;3.00;2.40;;;;;;;14.57;73.92;99231.16;4136633;28;20209;-71
2022/07/13 01:49:09;;;;;;;4.38;2.72;;;;;;;14.50;74.10;99231.91;4134874;28;20521;-71
2022/07/13 01:51:09;;;;;;;3.22;2.60;;;;;;;14.46;74.32;99228.28;4136142;28;20046;-71
2022/07/13 01:53:10;;;;;;;5.55;2.55;;;;;;;14.42;75.52;99226.63;4133228;28;20090;-71
2022/07/13 01:55:12;;;;;;;2.65;2.45;;;;;;;14.34;75.23;99223.78;4134071;28;20437;-71
2022/07/13 01:57:12;;;;;;;4.60;2.22;;;;;;;14.34;76.07;99231.34;4135943;28;20046;-71
2022/07/13 01:59:13;;;;;;;6.40;2.50;;;;;;;14.29;75.54;99223.34;4133949;28;20269;-71
2022/07/13 02:01:13;;;;;;;3.20;2.47;;;;;;;14.25;75.62;99214.97;4134917;28;20053;-71
2022/07/13 02:03:14;;;;;;;2.97;2.42;;;;;;;14.30;74.62;99222.94;4134612;28;20042;-71
2022/07/13 02:05:15;;;;;;;3.88;2.63;;;;;;;14.30;75.20;99222.13;4135847;28;20415;-71
2022/07/13 02:07:15;;;;;;;3.95;2.83;;;;;;;14.29;75.68;99213.00;4134652;28;20077;-71
2022/07/13 02:09:15;;;;;;;4.10;2.38;;;;;;;14.37;74.79;99213.06;4135487;28;20046;-71
2022/07/13 02:11:18;;;;;;;4.03;2.15;;;;;;;14.43;74.28;99215.09;4135664;28;20081;-71
2022/07/13 02:13:19;;;;;;;3.10;2.30;;;;;;;14.51;74.14;99216.00;4134899;28;20042;-71
2022/07/13 02:15:19;;;;;;;4.03;2.50;;;;;;;14.55;74.03;99205.66;4134849;28;20046;-71
2022/07/13 02:17:20;;;;;;;8.95;2.80;;;;;;;14.50;75.62;99209.63;4135646;28;20130;-71
2022/07/13 02:19:21;;;;;;;3.28;2.67;;;;;;;14.43;75.36;99208.72;4134765;28;20053;-72
2022/07/13 02:21:22;;;;;;;4.60;2.37;;;;;;;14.36;76.36;99203.91;4134633;28;20128;-71
2022/07/13 02:23:22;;;;;;;7.78;2.30;;;;;;;14.32;75.48;99208.66;4136088;28;20280;-71
2022/07/13 02:25:23;;;;;;;5.40;2.40;;;;;;;14.34;76.04;99201.50;4135766;28;20390;-71
2022/07/13 02:27:23;;;;;;;3.40;2.60;;;;;;;14.31;75.80;99202.28;4134724;28;20270;-71
2022/07/13 02:29:23;;;;;;;3.97;2.22;;;;;;;14.31;75.98;99204.25;4134789;28;20046;-71
2022/07/13 02:31:24;;;;;;;6.03;2.85;;;;;;;14.30;75.55;99194.31;4133409;28;20604;-71
2022/07/13 02:33:24;;;;;;;4.03;2.60;;;;;;;14.29;76.05;99196.28;4136256;28;20103;-71
2022/07/13 02:35:25;;;;;;;6.80;2.40;;;;;;;14.28;76.73;99189.13;4134542;28;20042;-71
2022/07/13 02:37:25;;;;;;;6.60;2.30;;;;;;;14.29;76.60;99187.16;4135937;28;20049;-71
2022/07/13 02:39:25;;;;;;;2.72;2.10;;;;;;;14.27;76.70;99176.41;4134752;28;20050;-71
2022/07/13 02:41:26;;;;;;;3.58;2.60;;;;;;;14.27;75.83;99168.06;4134596;28;20135;-71
2022/07/13 02:43:26;;;;;;;7.30;2.42;;;;;;;14.26;77.73;99174.81;4134584;28;20075;-71
2022/07/13 02:45:27;;;;;;;5.45;2.63;;;;;;;14.16;78.17;99175.53;4135790;28;20104;-71
2022/07/13 02:47:27;;;;;;;2.80;1.92;;;;;;;14.16;76.86;99171.94;4133893;28;20069;-71
2022/07/13 02:49:27;;;;;;;4.32;2.45;;;;;;;14.15;78.42;99175.88;4134225;28;20069;-71
2022/07/13 02:51:28;;;;;;;2.90;2.20;;;;;;;14.12;77.81;99171.09;4135013;28;20049;-71
2022/07/13 02:53:28;;;;;;;8.45;2.22;;;;;;;14.13;76.58;99156.81;4135744;28;20050;-72
2022/07/13 02:55:28;;;;;;;6.43;2.40;;;;;;;14.17;76.67;99154.88;4135906;28;20045;-71
2022/07/13 02:57:29;;;;;;;4.13;2.40;;;;;;;14.22;76.79;99153.69;4134718;28;20078;-71
2022/07/13 02:59:33;;;;;;;4.18;2.30;;;;;;;14.24;76.40;99162.47;4134970;28;20312;-71
2022/07/13 03:01:33;;;;;;;2.85;2.28;;;;;;;14.21;76.75;99161.25;4132339;28;20167;-71
2022/07/13 03:03:34;;;;;;;7.70;2.17;;;;;;;14.20;77.37;99154.06;4134593;28;20132;-71
2022/07/13 03:05:34;;;;;;;7.80;2.33;;;;;;;14.19;77.25;99149.69;4134807;28;20723;-71
2022/07/13 03:07:35;;;;;;;7.63;2.80;;;;;;;14.21;76.04;99138.19;4136194;28;20046;-71
2022/07/13 03:09:35;;;;;;;3.05;2.08;;;;;;;14.25;76.61;99131.47;4135131;28;20054;-71
2022/07/13 03:11:35;;;;;;;5.50;2.38;;;;;;;14.30;76.13;99128.31;4134416;28;20359;-71
2022/07/13 03:13:36;;;;;;;4.70;2.40;;;;;;;14.33;77.11;99135.09;4134340;28;20430;-71
2022/07/13 03:15:36;;;;;;;3.17;2.50;;;;;;;14.27;77.87;99129.09;4135431;28;20050;-71
2022/07/13 03:17:37;;;;;;;4.13;2.20;;;;;;;14.23;77.56;99133.00;4135401;28;20535;-71
2022/07/13 03:19:37;;;;;;;5.18;2.70;;;;;;;14.19;77.04;99123.84;4134320;28;20049;-71
2022/07/13 03:21:38;;;;;;;3.03;2.25;;;;;;;14.18;77.67;99128.63;4134444;28;20046;-71
2022/07/13 03:23:38;;;;;;;6.35;2.03;;;;;;;14.18;77.65;99130.63;4134988;28;20069;-71
2022/07/13 03:25:38;;;;;;;4.93;2.78;;;;;;;14.15;77.95;99117.44;4135448;28;20052;-71
2022/07/13 03:27:39;;;;;;;3.58;2.33;;;;;;;14.17;77.89;99123.44;4136034;28;20552;-71
2022/07/13 03:29:39;;;;;;;3.50;2.00;;;;;;;14.21;77.61;99113.13;4134380;28;20050;-71
2022/07/13 03:31:39;;;;;;;6.53;2.10;;;;;;;14.27;78.28;99128.28;4134707;28;20361;-71
2022/07/13 03:33:40;;;;;;;3.03;2.30;;;;;;;14.27;78.10;99128.28;4135783;28;20124;-71
2022/07/13 03:35:40;;;;;;;3.58;2.33;;;;;;;14.22;77.63;99121.09;4136968;28;20050;-72
2022/07/13 03:37:41;;;;;;;5.07;2.30;;;;;;;14.19;79.03;99126.63;4138187;28;20367;-71
2022/07/13 03:39:41;;;;;;;3.97;2.40;;;;;;;14.16;79.05;99131.00;4136259;28;20041;-71
2022/07/13 03:41:41;;;;;;;3.47;2.47;;;;;;;14.13;79.36;99125.41;4137014;28;20045;-71
2022/07/13 03:43:42;;;;;;;2.67;2.17;;;;;;;14.09;78.82;99121.81;4137128;28;20046;-71
2022/07/13 03:45:42;;;;;;;4.72;2.40;;;;;;;14.10;78.90;99121.41;4138539;28;20108;-71
2022/07/13 03:47:42;;;;;;;3.25;2.08;;;;;;;14.12;79.29;99126.59;4136123;28;20052;-71
2022/07/13 03:49:43;;;;;;;6.28;2.65;;;;;;;14.10;79.35;99128.97;4137025;28;20461;-72
2022/07/13 03:51:46;;;;;;;4.35;2.10;;;;;;;14.13;79.33;99122.63;4133483;28;20497;-72
2022/07/13 03:53:46;;;;;;;2.75;2.15;;;;;;;14.18;79.10;99133.41;4135138;28;20833;-71
2022/07/13 03:55:46;;;;;;;3.63;2.22;;;;;;;14.19;79.22;99123.84;4137645;28;20038;-71
2022/07/13 03:57:47;;;;;;;4.03;2.30;;;;;;;14.21;79.79;99121.47;4137637;28;20217;-71
2022/07/13 03:59:47;;;;;;;4.68;2.72;;;;;;;14.21;79.19;99124.25;4136531;28;20331;-71
2022/07/13 04:01:47;;;;;;;3.75;2.30;;;;;;;14.24;79.89;99129.06;4133757;28;20046;-71
2022/07/13 04:03:48;;;;;;;3.85;2.40;;;;;;;14.26;80.23;99135.03;4134614;28;20057;-71
2022/07/13 04:05:48;;;;;;;4.10;2.80;;;;;;;14.27;79.85;99140.22;4126608;28;20038;-71
2022/07/13 04:07:49;;;;;;;11.23;2.83;;;;;;;14.28;79.56;99127.91;4125932;28;20477;-71
2022/07/13 04:09:49;;;;;;;2.70;2.17;;;;;;;14.31;79.77;99135.50;4133563;28;20508;-71
2022/07/13 04:11:50;;;;;;;3.88;2.28;;;;;;;14.37;79.17;99141.47;4134215;28;20046;-71
2022/07/13 04:13:50;;;;;;;4.22;2.28;;;;;;;14.40;79.55;99139.91;4135702;28;20050;-71
2022/07/13 04:15:50;;;;;;;2.97;2.30;;;;;;;14.41;79.00;99147.09;4136467;28;20042;-71
2022/07/13 04:17:51;;;;;;;3.80;2.88;;;;;;;14.46;79.03;99150.31;4135916;28;20046;-71
2022/07/13 04:19:51;;;;;;;4.05;2.60;;;;;;;14.48;78.83;99139.59;4135451;28;20041;-72
2022/07/13 04:21:52;;;;;;;3.70;2.60;;;;;;;14.55;78.95;99149.97;4133706;28;20042;-71
2022/07/13 04:23:52;;;;;;;5.18;2.17;;;;;;;14.59;78.26;99145.25;4133187;28;20367;-71
2022/07/13 04:25:52;;;;;;;2.90;2.40;;;;;;;14.61;78.45;99154.00;4135985;28;20042;-71
2022/07/13 04:27:53;;;;;;;2.40;2.20;;;;;;;14.67;78.69;99151.66;4136486;28;20045;-71
2022/07/13 04:29:53;;;;;;;3.55;2.65;;;;;;;14.69;79.25;99154.84;4134118;28;20049;-71
2022/07/13 04:31:53;;;;;;;3.28;2.55;;;;;;;14.72;78.87;99149.28;4131937;28;20057;-71
2022/07/13 04:33:54;;;;;;;3.45;2.50;;;;;;;14.73;79.42;99164.81;4133559;28;20120;-71
2022/07/13 04:35:54;;;;;;;4.50;2.60;;;;;;;14.69;79.34;99160.41;4133248;28;20378;-71
2022/07/13 04:37:54;;;;;;;3.30;2.47;;;;;;;14.70;79.76;99153.66;4132746;28;20053;-71
2022/07/13 04:39:55;;;;;;;4.53;2.60;;;;;;;14.71;79.51;99158.81;4131788;28;20042;-71
2022/07/13 04:41:55;;;;;;;3.00;2.50;;;;;;;14.78;79.48;99153.28;4135422;28;20120;-71
2022/07/13 04:43:55;;;;;;;3.15;2.60;;;;;;;14.78;79.29;99160.84;4136476;28;20740;-71
2022/07/13 04:45:56;;;;;;;6.20;2.83;;;;;;;14.78;78.92;99163.63;4134357;28;20054;-71
2022/07/13 04:47:57;;;;;;;3.63;2.70;;;;;;;14.74;79.20;99160.06;4135701;28;20474;-71
2022/07/13 04:49:57;;;;;;;4.95;2.70;;;;;;;14.80;79.62;99173.19;4135936;28;20057;-71
2022/07/13 04:51:57;;;;;;;3.40;2.58;;;;;;;14.78;80.34;99158.06;4137238;28;20041;-71
2022/07/13 04:53:58;;;;;;;14.77;3.17;;;;;;;14.73;80.93;99162.03;4133696;28;20077;-71
2022/07/13 04:55:58;;;;;;;3.90;2.55;;;;;;;14.74;81.39;99160.84;4135225;28;20046;-72
2022/07/13 04:57:58;;;;;;;4.38;2.65;;;;;;;14.78;80.92;99158.06;4080508;28;20042;-72
2022/07/13 04:59:59;;;;;;;3.17;2.47;;;;;;;14.80;81.79;99162.06;4135351;28;20073;-71
2022/07/13 05:01:59;;;;;;;3.10;2.67;;;;;;;14.85;82.53;99160.91;4133327;28;20399;-71
2022/07/13 05:04:01;;;;;;;9.05;2.90;;;;;;;14.89;82.25;99162.53;4134896;28;20079;-72
2022/07/13 05:06:02;;;;;;;3.63;2.80;;;;;;;14.95;82.36;99159.34;4135975;28;20121;-72
2022/07/13 05:08:02;;;;;;;4.40;3.17;;;;;;;14.98;82.68;99159.38;4134681;28;20069;-72
2022/07/13 05:10:03;;;;;;;4.03;2.50;;;;;;;15.02;81.97;99145.44;4136238;28;20072;-72
2022/07/13 05:12:03;;;;;;;4.10;3.00;;;;;;;15.12;81.51;99144.69;4136710;28;20103;-72
2022/07/13 05:14:04;;;;;;;4.68;3.08;;;;;;;15.17;81.09;99139.53;4135569;28;20072;-72
2022/07/13 05:16:04;;;;;;;3.47;2.78;;;;;;;15.25;80.09;99142.34;4135446;28;20269;-71
2022/07/13 05:18:05;;;;;;;3.55;2.63;;;;;;;15.36;79.04;99145.97;4135194;28;20053;-72
2022/07/13 05:20:06;;;;;;;2.85;2.53;;;;;;;15.45;77.63;99136.03;4135469;28;20088;-71
2022/07/13 05:22:07;;;;;;;3.92;2.70;;;;;;;15.52;77.20;99129.69;4135285;28;20040;-72
2022/07/13 05:24:07;;;;;;;9.30;2.60;;;;;;;15.63;76.43;99136.09;4135679;28;20061;-71
2022/07/13 05:26:08;;;;;;;4.55;2.92;;;;;;;15.79;76.70;99143.28;4136772;28;20033;-71
2022/07/13 05:28:08;;;;;;;3.95;2.60;;;;;;;15.89;77.39;99136.94;4135736;28;20037;-71
2022/07/13 05:30:09;;;;;;;5.93;2.78;;;;;;;15.97;77.83;99139.34;4129678;28;20037;-71
2022/07/13 05:32:09;;;;;;;5.07;2.75;;;;;;;16.07;77.56;99134.16;4136668;28;20478;-71
2022/07/13 05:34:09;;;;;;;7.50;3.25;;;;;;;16.12;77.55;99136.53;4136184;28;20040;-72
2022/07/13 05:36:10;;;;;;;5.28;3.22;;;;;;;16.17;77.22;99142.53;4136031;28;20064;-72
2022/07/13 05:38:10;;;;;;;3.70;2.45;;;;;;;16.24;75.19;99145.31;4132699;28;20120;-72
2022/07/13 05:40:10;;;;;;;6.38;2.72;;;;;;;16.28;74.04;99142.50;4135684;28;21147;-72
2022/07/13 05:42:11;;;;;;;5.82;2.65;;;;;;;16.36;73.11;99138.50;4136421;28;20500;-72
2022/07/13 05:44:12;;;;;;;4.53;2.35;;;;;;;16.41;72.45;99131.72;4137033;28;20026;-71
2022/07/13 05:46:12;;;;;;;8.00;3.42;;;;;;;16.53;71.86;99139.69;4135935;28;20057;-71
2022/07/13 05:48:13;;;;;;;5.60;2.90;;;;;;;16.57;71.49;99132.91;4136352;28;20114;-72
2022/07/13 05:50:13;;;;;;;9.70;3.28;;;;;;;16.62;72.37;99128.88;4135698;28;20034;-72
2022/07/13 05:52:14;;;;;;;10.48;3.40;;;;;;;16.65;72.52;99135.69;4136109;28;20441;-71
2022/07/13 05:54:14;;;;;;;8.30;2.88;;;;;;;16.70;71.42;99126.91;4137435;28;20256;-71
2022/07/13 05:56:15;;;;;;;9.65;3.65;;;;;;;16.74;71.90;99136.09;4136295;28;20486;-71
2022/07/13 05:58:15;;;;;;;5.47;2.97;;;;;;;16.80;72.33;99137.28;4134735;28;20043;-71
2022/07/13 06:00:15;;;;;;;9.85;3.75;;;;;;;16.90;72.33;99144.03;4136509;28;20274;-71
2022/07/13 06:02:16;;;;;;;9.13;3.28;;;;;;;16.99;73.01;99138.78;4136224;28;20034;-71
2022/07/13 06:04:16;;;;;;;8.35;3.33;;;;;;;17.08;72.73;99145.53;4136200;28;20401;-71
2022/07/13 06:06:17;;;;;;;5.30;2.85;;;;;;;17.17;70.49;99136.72;4135256;28;20038;-72
2022/07/13 06:08:17;;;;;;;5.70;2.67;;;;;;;17.30;68.67;99131.47;4134776;28;20034;-71
2022/07/13 06:10:17;;;;;;;6.88;2.97;;;;;;;17.41;67.83;99141.38;4135016;28;20050;-72
2022/07/13 06:12:18;;;;;;;4.93;2.60;;;;;;;17.49;67.93;99136.56;4135592;28;20466;-72
2022/07/13 06:14:18;;;;;;;14.73;3.28;;;;;;;17.57;69.23;99137.31;4136983;28;20029;-71
2022/07/13 06:16:18;;;;;;;8.10;3.00;;;;;;;17.68;69.78;99132.44;4134921;28;20381;-71
2022/07/13 06:18:19;;;;;;;7.63;3.15;;;;;;;17.78;69.19;99131.59;4135519;28;20057;-71
2022/07/13 06:20:19;;;;;;;4.53;2.58;;;;;;;17.86;68.02;99141.53;4136063;28;20648;-71
2022/07/13 06:22:19;;;;;;;5.63;2.70;;;;;;;17.94;66.66;99145.06;4135118;28;20062;-71
2022/07/13 06:24:20;;;;;;;5.20;2.83;;;;;;;18.03;68.79;99137.00;4136703;28;20030;-72
2022/07/13 06:26:20;;;;;;;5.43;2.80;;;;;;;18.15;68.53;99130.13;4135594;28;20108;-72
2022/07/13 06:28:21;;;;;;;10.73;3.20;;;;;;;18.24;67.97;99125.63;4134370;28;20514;-71
2022/07/13 06:30:21;;;;;;;6.82;2.42;;;;;;;18.33;67.34;99124.34;4136355;28;20052;-71
2022/07/13 06:32:21;;;;;;;5.25;3.17;;;;;;;18.45;66.20;99140.63;4136054;28;20057;-71
2022/07/13 06:34:21;;;;;;;8.65;2.53;;;;;;;18.57;65.77;99133.72;4135644;28;20050;-71
2022/07/13 06:36:22;;;;;;;3.55;2.60;;;;;;;18.68;65.31;99137.22;4135397;28;20077;-71
2022/07/13 06:38:22;;;;;;;4.90;2.47;;;;;;;18.79;65.04;99146.34;4135269;28;20076;-71
2022/07/13 06:40:23;;;;;;;8.30;2.75;;;;;;;18.88;63.38;99131.81;4135593;28;20057;-71
2022/07/13 06:42:23;;;;;;;4.60;2.83;;;;;;;18.97;63.03;99135.72;4132887;28;20507;-71
2022/07/13 06:44:24;;;;;;;2.80;2.50;;;;;;;19.06;63.60;99130.38;4135628;28;20041;-71
2022/07/13 06:46:24;;;;;;;4.28;2.47;;;;;;;19.17;62.48;99126.66;4134835;28;20038;-71
2022/07/13 06:48:24;;;;;;;6.03;3.63;;;;;;;19.26;62.11;99118.50;4133722;28;20046;-71
2022/07/13 06:50:25;;;;;;;4.68;2.15;;;;;;;19.33;61.18;99118.41;4135226;28;20038;-71
2022/07/13 06:52:25;;;;;;;7.72;3.22;;;;;;;19.46;63.24;99118.66;4135313;28;20140;-71
2022/07/13 06:54:25;;;;;;;10.10;2.00;;;;;;;19.55;61.68;99127.34;4135366;28;20111;-71
2022/07/13 06:56:26;;;;;;;5.45;2.30;;;;;;;19.67;62.20;99120.38;4135979;28;20054;-71
2022/07/13 06:58:26;;;;;;;3.70;2.10;;;;;;;19.78;62.05;99116.19;4135546;28;20042;-72
2022/07/13 07:00:26;;;;;;;4.20;2.38;;;;;;;19.86;60.73;99108.47;4136242;28;20048;-71
2022/07/13 07:02:27;;;;;;;3.25;2.10;;;;;;;19.99;60.48;99117.84;4135678;28;20046;-71
2022/07/13 07:04:29;;;;;;;2.47;2.10;;;;;;;20.10;60.80;99126.91;4135245;28;20045;-71
2022/07/13 07:06:30;;;;;;;5.22;2.60;;;;;;;20.24;60.23;99120.25;4136080;28;20084;-71
2022/07/13 07:08:31;;;;;;;4.30;2.15;;;;;;;20.32;59.26;99112.50;4135386;28;20155;-71
2022/07/13 07:10:32;;;;;;;5.80;2.42;;;;;;;20.44;58.97;99111.91;4137835;28;20046;-71
2022/07/13 07:12:32;;;;;;;3.33;2.30;;;;;;;20.53;58.73;99105.72;4139139;28;20392;-71
2022/07/13 07:14:33;;;;;;;6.18;2.97;;;;;;;20.64;57.90;99115.53;4138339;28;20046;-71
2022/07/13 07:16:33;;;;;;;6.57;2.70;;;;;;;20.75;57.27;99118.13;4138267;28;20095;-71
2022/07/13 07:18:33;;;;;;;5.03;2.20;;;;;;;20.88;57.40;99119.09;4137177;28;20034;-71
2022/07/13 07:20:33;;;;;;;5.13;2.40;;;;;;;21.07;58.29;99117.50;4138467;28;20496;-71
2022/07/13 07:22:34;;;;;;;6.43;2.72;;;;;;;21.22;56.28;99104.72;4138413;28;20577;-72
2022/07/13 07:24:34;;;;;;;3.15;2.53;;;;;;;21.36;55.46;99106.47;4138814;28;20800;-72
2022/07/13 07:26:34;;;;;;;2.95;2.30;;;;;;;21.47;55.25;99104.19;4138367;28;20141;-72
2022/07/13 07:28:35;;;;;;;5.10;2.20;;;;;;;21.52;54.68;99092.44;4136017;28;20046;-72
2022/07/13 07:30:36;;;;;;;5.90;2.08;;;;;;;21.70;55.03;99102.50;4138897;28;20046;-72
2022/07/13 07:32:38;;;;;;;5.15;1.90;;;;;;;21.91;54.01;99096.31;4137564;28;20050;-72
2022/07/13 07:34:38;;;;;;;5.78;1.95;;;;;;;22.11;51.62;99105.53;4137018;28;20046;-72
2022/07/13 07:36:40;;;;;;;5.68;1.90;;;;;;;22.22;50.96;99096.00;4138305;28;20120;-72
2022/07/13 07:38:40;;;;;;;3.88;1.40;;;;;;;22.32;50.10;99087.25;4137416;28;20132;-72
2022/07/13 07:40:41;;;;;;;2.55;1.85;;;;;;;22.50;47.72;99086.78;4137918;28;20046;-72
2022/07/13 07:42:41;;;;;;;3.50;1.50;;;;;;;22.75;47.42;99090.94;4138427;28;20112;-72
2022/07/13 07:44:41;;;;;;;3.75;1.20;;;;;;;22.94;44.32;99090.81;4138430;28;20046;-72
2022/07/13 07:46:42;;;;;;;2.00;0.93;;;;;;;23.12;44.12;99090.31;4136197;28;20053;-72
2022/07/13 07:48:42;;;;;;;1.48;1.20;;;;;;;23.25;44.06;99093.13;4137705;28;20050;-72
2022/07/13 07:50:42;;;;;;;1.58;1.30;;;;;;;23.40;44.01;99079.38;4138785;28;20053;-72
2022/07/13 07:52:43;;;;;;;3.55;1.65;;;;;;;23.48;42.40;99081.53;4122811;28;20152;-72
2022/07/13 07:54:43;;;;;;;2.10;1.30;;;;;;;23.51;42.34;99080.66;4133079;28;20046;-72
2022/07/13 07:56:43;;;;;;;3.53;1.33;;;;;;;23.64;41.88;99077.84;4135131;28;20168;-72
2022/07/13 07:58:44;;;;;;;1.88;1.05;;;;;;;23.75;42.33;99080.34;4132722;28;20053;-72
2022/07/13 08:00:44;;;;;;;3.35;1.60;;;;;;;23.83;42.84;99084.50;4137804;28;20401;-72
2022/07/13 08:02:47;;;;;;;2.42;1.42;;;;;;;23.93;42.27;99089.03;4136783;28;20509;-72
2022/07/13 08:04:49;;;;;;;;;;;;;;;24.00;41.02;99088.78;4138821;28;20061;-72
2022/07/13 08:06:49;;;;;;;1.20;1.02;;;;;;;24.03;41.11;99090.69;4137548;28;19914;-72
2022/07/13 08:08:49;;;;;;;1.40;1.00;;;;;;;24.17;40.84;99091.47;4137618;28;20053;-72
2022/07/13 08:10:50;;;;;;;12.00;1.40;;;;;;;24.10;40.53;99092.50;4137853;28;20074;-72
2022/07/13 08:12:51;;;;;;;4.88;1.35;;;;;;;24.17;40.36;99085.81;4138382;28;20390;-72
2022/07/13 08:14:51;;;;;;;1.27;1.00;;;;;;;24.26;40.21;99089.53;4137487;28;20085;-72
2022/07/13 08:16:52;;;;;;;1.40;1.20;;;;;;;24.40;39.59;99093.13;4137224;28;20553;-72
2022/07/13 08:18:52;;;;;;;1.40;1.30;;;;;;;24.30;39.70;99081.69;4136385;28;21264;-72
2022/07/13 08:20:52;;;;;;;1.73;1.10;;;;;;;24.23;39.36;99081.94;4136964;28;20409;-72
2022/07/13 08:22:54;;;;;;;1.33;1.10;;;;;;;24.41;39.36;99084.19;4138732;28;20104;-72
2022/07/13 08:24:54;;;;;;;2.38;1.65;;;;;;;24.66;39.13;99074.84;4137450;28;20673;-72
2022/07/13 08:26:55;;;;;;;2.60;1.10;;;;;;;24.83;38.57;99069.78;4137643;28;20084;-72
2022/07/13 08:28:59;;;;;;;2.17;1.20;;;;;;;24.87;38.99;99064.75;4137516;28;20129;-72
2022/07/13 08:31:00;;;;;;;1.65;1.30;;;;;;;24.87;38.18;99056.25;4137281;28;20039;-72
2022/07/13 08:33:00;;;;;;;1.83;1.20;;;;;;;25.07;38.64;99062.41;4135643;28;20038;-72
2022/07/13 08:39:44;;;;;;;1.30;1.17;;;;;;;25.42;37.53;99059.44;4137018;28;20049;-72
2022/07/13 08:41:45;;;;;;;2.00;1.15;;;;;;;25.52;37.96;99063.91;4137330;28;20469;-72
2022/07/13 08:43:45;;;;;;;2.97;1.40;;;;;;;25.61;36.21;99063.16;4131607;28;20034;-72
2022/07/13 08:45:45;;;;;;;1.42;1.00;;;;;;;25.74;36.50;99056.16;4134634;28;20042;-72
2022/07/13 08:47:47;;;;;;;3.53;1.88;;;;;;;25.79;38.50;99054.72;4137356;28;20053;-72
2022/07/13 08:49:50;;;;;;;2.05;1.23;;;;;;;25.85;37.75;99052.88;4134738;28;20045;-72
2022/07/13 08:51:51;;;;;;;2.88;1.25;;;;;;;25.89;35.83;99045.00;4136480;28;20640;-72
2022/07/13 08:53:54;;;;;;;1.30;1.20;;;;;;;26.20;34.17;99055.44;4136812;28;20107;-72
2022/07/13 08:55:56;;;;;;;3.20;1.20;;;;;;;26.40;35.23;99049.34;4136768;28;20037;-72
2022/07/13 08:57:56;;;;;;;;;;;;;;;26.51;33.46;99049.69;4137813;28;20042;-72
2022/07/13 08:59:57;;;;;;;3.10;2.58;;;;;;;26.70;33.16;99045.56;4135738;28;20007;-72
2022/07/13 09:01:57;;;;;;;2.55;1.95;;;;;;;26.75;33.19;99033.59;4136483;28;20049;-72
2022/07/13 09:03:57;;;;;;;6.75;4.13;;;;;;;26.89;33.97;99037.81;4135891;28;20534;-72
2022/07/13 09:05:59;;;;;;;5.57;2.65;;;;;;;26.99;32.93;99042.22;4136776;28;20509;-72
2022/07/13 09:08:05;;;;;;;5.75;2.92;;;;;;;27.02;32.93;99031.97;4137449;28;20084;-72
2022/07/13 09:10:06;;;;;;;4.45;2.92;;;;;;;27.19;32.58;99033.19;4135676;28;20537;-73
2022/07/13 09:12:18;;;;;;;15.55;9.65;;;;;;;26.86;33.07;99036.72;4136556;28;20464;-72
2022/07/13 09:14:25;;;;;;;;;;;;;;;26.80;32.65;99034.97;4135959;28;20062;-73
2022/07/13 09:16:28;;;;;;;19.13;10.05;;;;;;;26.87;34.71;99038.28;4137229;28;20389;-72
2022/07/13 09:18:28;;;;;;;14.18;5.15;;;;;;;27.04;34.49;99035.91;4135590;28;20772;-72
2022/07/13 09:20:28;;;;;;;7.22;3.95;;;;;;;26.99;33.17;99022.34;4136873;28;20080;-72
2022/07/13 09:22:29;;;;;;;2.47;1.90;;;;;;;27.03;33.47;99031.50;4137212;28;20829;-72
2022/07/13 09:24:42;;;;;;;3.10;1.40;;;;;;;26.89;33.23;99015.09;4136306;28;20326;-72
2022/07/13 09:26:43;;;;;;;2.95;1.17;;;;;;;26.97;33.95;99016.34;4135758;28;20474;-72
2022/07/13 09:28:45;;;;;;;3.05;1.45;;;;;;;26.90;33.67;99011.03;4135371;28;20204;-73
2022/07/13 09:30:46;;;;;;;3.40;1.30;;;;;;;26.95;34.37;99009.56;4136582;28;20500;-72
2022/07/13 09:32:46;;;;;;;2.20;1.38;;;;;;;27.00;34.19;99017.47;4136270;28;20034;-73
2022/07/13 09:34:58;;;;;;;1.52;1.40;;;;;;;27.14;34.01;99014.78;4137199;28;20050;-73